sensor_id;sensor_type;location;lat;lon;timestamp;pressure;altitude;pressure_sealevel;temperature;humidity
48848;BME280;75039;51.970;5.660;2024-01-30T00:00:02;102662.56;;;11.48;59.59
48848;BME280;75039;51.970;5.660;2024-01-30T00:02:31;102664.53;;;11.44;59.78
48848;BME280;75039;51.970;5.660;2024-01-30T00:04:58;102665.47;;;11.43;59.58
48848;BME280;75039;51.970;5.660;2024-01-30T00:07:24;102662.03;;;11.40;59.57
48848;BME280;75039;51.970;5.660;2024-01-30T00:09:51;102660.31;;;11.39;59.58
48848;BME280;75039;51.970;5.660;2024-01-30T00:12:18;102652.38;;;11.36;59.85
48848;BME280;75039;51.970;5.660;2024-01-30T00:14:45;102660.56;;;11.33;59.83
48848;BME280;75039;51.970;5.660;2024-01-30T00:17:12;102668.72;;;11.31;60.00
48848;BME280;75039;51.970;5.660;2024-01-30T00:19:38;102658.97;;;11.29;60.09
48848;BME280;75039;51.970;5.660;2024-01-30T00:22:05;102667.09;;;11.27;59.95
48848;BME280;75039;51.970;5.660;2024-01-30T00:24:32;102652.84;;;11.25;60.24
48848;BME280;75039;51.970;5.660;2024-01-30T00:26:58;102657.38;;;11.25;60.28
48848;BME280;75039;51.970;5.660;2024-01-30T00:29:25;102660.94;;;11.25;60.47
48848;BME280;75039;51.970;5.660;2024-01-30T00:31:56;102654.59;;;11.26;60.61
48848;BME280;75039;51.970;5.660;2024-01-30T00:34:23;102658.09;;;11.28;60.62
48848;BME280;75039;51.970;5.660;2024-01-30T00:36:50;102648.16;;;11.30;60.43
48848;BME280;75039;51.970;5.660;2024-01-30T00:39:17;102652.59;;;11.31;60.63
48848;BME280;75039;51.970;5.660;2024-01-30T00:41:46;102651.56;;;11.34;60.83
48848;BME280;75039;51.970;5.660;2024-01-30T00:44:12;102647.06;;;11.34;60.84
48848;BME280;75039;51.970;5.660;2024-01-30T00:46:39;102650.56;;;11.36;60.55
48848;BME280;75039;51.970;5.660;2024-01-30T00:49:06;102641.59;;;11.36;60.64
48848;BME280;75039;51.970;5.660;2024-01-30T00:51:33;102654.13;;;11.37;60.61
48848;BME280;75039;51.970;5.660;2024-01-30T00:54:00;102650.56;;;11.36;60.53
48848;BME280;75039;51.970;5.660;2024-01-30T00:56:26;102642.47;;;11.36;60.50
48848;BME280;75039;51.970;5.660;2024-01-30T00:58:53;102643.34;;;11.37;60.74
48848;BME280;75039;51.970;5.660;2024-01-30T01:01:20;102645.09;;;11.38;60.64
48848;BME280;75039;51.970;5.660;2024-01-30T01:03:46;102641.53;;;11.37;60.89
48848;BME280;75039;51.970;5.660;2024-01-30T01:06:15;102635.22;;;11.38;60.93
48848;BME280;75039;51.970;5.660;2024-01-30T01:08:42;102636.09;;;11.39;61.03
48848;BME280;75039;51.970;5.660;2024-01-30T01:11:09;102639.66;;;11.39;60.81
48848;BME280;75039;51.970;5.660;2024-01-30T01:13:36;102645.91;;;11.40;60.86
48848;BME280;75039;51.970;5.660;2024-01-30T01:16:03;102636.88;;;11.41;60.74
48848;BME280;75039;51.970;5.660;2024-01-30T01:18:30;102639.50;;;11.42;60.87
48848;BME280;75039;51.970;5.660;2024-01-30T01:20:57;102633.25;;;11.42;60.81
48848;BME280;75039;51.970;5.660;2024-01-30T01:23:24;102644.88;;;11.42;60.72
48848;BME280;75039;51.970;5.660;2024-01-30T01:25:50;102640.44;;;11.41;60.88
48848;BME280;75039;51.970;5.660;2024-01-30T01:28:17;102635.06;;;11.41;60.84
48848;BME280;75039;51.970;5.660;2024-01-30T01:30:44;102639.59;;;11.41;60.98
48848;BME280;75039;51.970;5.660;2024-01-30T01:33:11;102631.66;;;11.38;60.80
48848;BME280;75039;51.970;5.660;2024-01-30T01:35:41;102631.78;;;11.35;60.41
48848;BME280;75039;51.970;5.660;2024-01-30T01:38:08;102627.50;;;11.31;60.57
48848;BME280;75039;51.970;5.660;2024-01-30T01:40:35;102626.84;;;11.26;60.63
48848;BME280;75039;51.970;5.660;2024-01-30T01:43:03;102614.47;;;11.22;60.61
48848;BME280;75039;51.970;5.660;2024-01-30T01:45:30;102607.41;;;11.19;60.50
48848;BME280;75039;51.970;5.660;2024-01-30T01:47:57;102617.31;;;11.19;60.74
48848;BME280;75039;51.970;5.660;2024-01-30T01:50:24;102613.88;;;11.15;60.48
48848;BME280;75039;51.970;5.660;2024-01-30T01:52:52;102609.41;;;11.14;60.71
48848;BME280;75039;51.970;5.660;2024-01-30T01:55:21;102610.41;;;11.11;60.62
48848;BME280;75039;51.970;5.660;2024-01-30T01:57:53;102609.53;;;11.11;60.61
48848;BME280;75039;51.970;5.660;2024-01-30T02:00:21;102610.41;;;11.11;60.66
48848;BME280;75039;51.970;5.660;2024-01-30T02:02:49;102606.84;;;11.11;60.84
48848;BME280;75039;51.970;5.660;2024-01-30T02:05:16;102614.13;;;11.09;60.72
48848;BME280;75039;51.970;5.660;2024-01-30T02:07:47;102604.31;;;11.08;60.73
48848;BME280;75039;51.970;5.660;2024-01-30T02:10:15;102602.56;;;11.07;60.50
48848;BME280;75039;51.970;5.660;2024-01-30T02:12:42;102600.75;;;11.07;60.67
48848;BME280;75039;51.970;5.660;2024-01-30T02:15:13;102605.31;;;11.05;60.54
48848;BME280;75039;51.970;5.660;2024-01-30T02:17:40;102610.78;;;11.04;60.69
48848;BME280;75039;51.970;5.660;2024-01-30T02:20:07;102601.81;;;11.03;60.67
48848;BME280;75039;51.970;5.660;2024-01-30T02:22:36;102598.28;;;11.03;60.69
48848;BME280;75039;51.970;5.660;2024-01-30T02:25:04;102609.09;;;11.01;60.49
48848;BME280;75039;51.970;5.660;2024-01-30T02:27:31;102607.28;;;11.02;60.69
48848;BME280;75039;51.970;5.660;2024-01-30T02:29:57;102600.16;;;11.01;60.91
48848;BME280;75039;51.970;5.660;2024-01-30T02:32:24;102598.34;;;11.01;60.53
48848;BME280;75039;51.970;5.660;2024-01-30T02:34:51;102601.09;;;11.00;60.64
48848;BME280;75039;51.970;5.660;2024-01-30T02:37:17;102603.78;;;11.00;60.83
48848;BME280;75039;51.970;5.660;2024-01-30T02:39:44;102593.03;;;11.00;60.46
48848;BME280;75039;51.970;5.660;2024-01-30T02:42:11;102587.78;;;10.97;60.65
48848;BME280;75039;51.970;5.660;2024-01-30T02:44:38;102591.41;;;10.96;60.61
48848;BME280;75039;51.970;5.660;2024-01-30T02:47:04;102607.56;;;10.96;60.60
48848;BME280;75039;51.970;5.660;2024-01-30T02:49:31;102601.31;;;10.95;60.47
48848;BME280;75039;51.970;5.660;2024-01-30T02:51:58;102605.72;;;10.96;60.46
48848;BME280;75039;51.970;5.660;2024-01-30T02:54:24;102604.88;;;10.96;60.38
48848;BME280;75039;51.970;5.660;2024-01-30T02:56:51;102592.38;;;10.95;60.67
48848;BME280;75039;51.970;5.660;2024-01-30T02:59:18;102598.69;;;10.94;60.39
48848;BME280;75039;51.970;5.660;2024-01-30T03:01:45;102586.19;;;10.93;60.76
48848;BME280;75039;51.970;5.660;2024-01-30T03:04:12;102594.25;;;10.93;60.48
48848;BME280;75039;51.970;5.660;2024-01-30T03:06:45;102574.63;;;10.91;60.61
48848;BME280;75039;51.970;5.660;2024-01-30T03:09:12;102578.19;;;10.91;60.55
48848;BME280;75039;51.970;5.660;2024-01-30T03:11:40;102580.00;;;10.91;60.71
48848;BME280;75039;51.970;5.660;2024-01-30T03:14:06;102573.75;;;10.90;60.65
48848;BME280;75039;51.970;5.660;2024-01-30T03:16:34;102565.75;;;10.89;60.94
48848;BME280;75039;51.970;5.660;2024-01-30T03:19:01;102559.50;;;10.88;60.57
48848;BME280;75039;51.970;5.660;2024-01-30T03:21:29;102556.91;;;10.87;60.68
48848;BME280;75039;51.970;5.660;2024-01-30T03:23:56;102561.31;;;10.88;60.47
48848;BME280;75039;51.970;5.660;2024-01-30T03:26:22;102556.81;;;10.88;60.71
48848;BME280;75039;51.970;5.660;2024-01-30T03:28:49;102562.13;;;10.90;60.65
48848;BME280;75039;51.970;5.660;2024-01-30T03:31:15;102556.75;;;10.90;60.44
48848;BME280;75039;51.970;5.660;2024-01-30T03:33:42;102550.50;;;10.89;60.52
48848;BME280;75039;51.970;5.660;2024-01-30T03:36:10;102549.63;;;10.89;60.60
48848;BME280;75039;51.970;5.660;2024-01-30T03:38:37;102549.63;;;10.89;60.37
48848;BME280;75039;51.970;5.660;2024-01-30T03:41:07;102548.75;;;10.88;60.62
48848;BME280;75039;51.970;5.660;2024-01-30T03:43:35;102544.25;;;10.89;60.67
48848;BME280;75039;51.970;5.660;2024-01-30T03:46:02;102542.50;;;10.88;60.56
48848;BME280;75039;51.970;5.660;2024-01-30T03:48:30;102540.69;;;10.88;60.41
48848;BME280;75039;51.970;5.660;2024-01-30T03:50:56;102546.06;;;10.88;60.53
48848;BME280;75039;51.970;5.660;2024-01-30T03:53:23;102554.06;;;10.90;60.51
48848;BME280;75039;51.970;5.660;2024-01-30T03:55:50;102552.25;;;10.90;60.56
48848;BME280;75039;51.970;5.660;2024-01-30T03:58:16;102543.31;;;10.90;60.52
48848;BME280;75039;51.970;5.660;2024-01-30T04:00:44;102551.38;;;10.90;60.62
48848;BME280;75039;51.970;5.660;2024-01-30T04:03:11;102547.75;;;10.91;60.32
48848;BME280;75039;51.970;5.660;2024-01-30T04:05:38;102558.50;;;10.91;60.70
48848;BME280;75039;51.970;5.660;2024-01-30T04:08:05;102559.38;;;10.91;60.50
48848;BME280;75039;51.970;5.660;2024-01-30T04:10:32;102557.56;;;10.92;60.44
48848;BME280;75039;51.970;5.660;2024-01-30T04:12:58;102552.19;;;10.92;60.61
48848;BME280;75039;51.970;5.660;2024-01-30T04:15:26;102550.44;;;10.91;60.78
48848;BME280;75039;51.970;5.660;2024-01-30T04:17:53;102548.69;;;10.90;60.42
48848;BME280;75039;51.970;5.660;2024-01-30T04:20:19;102546.94;;;10.89;60.77
48848;BME280;75039;51.970;5.660;2024-01-30T04:22:46;102546.06;;;10.88;60.57
48848;BME280;75039;51.970;5.660;2024-01-30T04:25:13;102548.75;;;10.88;60.54
48848;BME280;75039;51.970;5.660;2024-01-30T04:27:40;102546.88;;;10.90;60.44
48848;BME280;75039;51.970;5.660;2024-01-30T04:30:07;102554.88;;;10.92;60.78
48848;BME280;75039;51.970;5.660;2024-01-30T04:32:34;102545.00;;;10.92;60.57
48848;BME280;75039;51.970;5.660;2024-01-30T04:35:01;102535.13;;;10.93;60.62
48848;BME280;75039;51.970;5.660;2024-01-30T04:37:31;102536.06;;;10.92;60.40
48848;BME280;75039;51.970;5.660;2024-01-30T04:39:58;102530.69;;;10.92;60.65
48848;BME280;75039;51.970;5.660;2024-01-30T04:42:25;102531.63;;;10.91;60.82
48848;BME280;75039;51.970;5.660;2024-01-30T04:44:51;102528.88;;;10.92;60.42
48848;BME280;75039;51.970;5.660;2024-01-30T04:47:18;102531.56;;;10.92;60.73
48848;BME280;75039;51.970;5.660;2024-01-30T04:49:45;102528.00;;;10.92;60.90
48848;BME280;75039;51.970;5.660;2024-01-30T04:52:11;102526.97;;;10.94;60.70
48848;BME280;75039;51.970;5.660;2024-01-30T04:54:38;102514.34;;;10.96;60.75
48848;BME280;75039;51.970;5.660;2024-01-30T04:57:08;102518.84;;;10.96;60.80
48848;BME280;75039;51.970;5.660;2024-01-30T04:59:36;102521.38;;;10.99;60.86
48848;BME280;75039;51.970;5.660;2024-01-30T05:02:03;102521.31;;;11.00;60.63
48848;BME280;75039;51.970;5.660;2024-01-30T05:04:29;102525.69;;;11.03;60.60
48848;BME280;75039;51.970;5.660;2024-01-30T05:06:56;102525.53;;;11.06;60.90
48848;BME280;75039;51.970;5.660;2024-01-30T05:09:23;102534.34;;;11.09;60.75
48848;BME280;75039;51.970;5.660;2024-01-30T05:11:50;102518.13;;;11.11;60.71
48848;BME280;75039;51.970;5.660;2024-01-30T05:14:16;102526.00;;;11.16;60.69
48848;BME280;75039;51.970;5.660;2024-01-30T05:16:44;102523.25;;;11.17;60.82
48848;BME280;75039;51.970;5.660;2024-01-30T05:19:13;102519.53;;;11.20;60.61
48848;BME280;75039;51.970;5.660;2024-01-30T05:21:41;102521.22;;;11.22;60.70
48848;BME280;75039;51.970;5.660;2024-01-30T05:24:08;102527.41;;;11.24;60.72
48848;BME280;75039;51.970;5.660;2024-01-30T05:26:36;102523.69;;;11.27;60.84
48848;BME280;75039;51.970;5.660;2024-01-30T05:29:03;102527.19;;;11.29;60.38
48848;BME280;75039;51.970;5.660;2024-01-30T05:31:30;102519.09;;;11.29;60.82
48848;BME280;75039;51.970;5.660;2024-01-30T05:33:57;102513.66;;;11.30;60.58
48848;BME280;75039;51.970;5.660;2024-01-30T05:36:24;102514.59;;;11.29;60.79
48848;BME280;75039;51.970;5.660;2024-01-30T05:38:50;102506.59;;;11.28;60.63
48848;BME280;75039;51.970;5.660;2024-01-30T05:41:17;102516.56;;;11.26;60.83
48848;BME280;75039;51.970;5.660;2024-01-30T05:43:44;102504.00;;;11.26;60.53
48848;BME280;75039;51.970;5.660;2024-01-30T05:46:11;102509.28;;;11.28;60.69
48848;BME280;75039;51.970;5.660;2024-01-30T05:48:38;102505.59;;;11.30;60.73
48848;BME280;75039;51.970;5.660;2024-01-30T05:51:04;102514.47;;;11.32;60.61
48848;BME280;75039;51.970;5.660;2024-01-30T05:53:31;102506.25;;;11.35;60.78
48848;BME280;75039;51.970;5.660;2024-01-30T05:55:59;102518.59;;;11.39;60.79
48848;BME280;75039;51.970;5.660;2024-01-30T05:58:26;102520.25;;;11.42;60.66
48848;BME280;75039;51.970;5.660;2024-01-30T06:00:53;102522.81;;;11.45;60.89
48848;BME280;75039;51.970;5.660;2024-01-30T06:03:20;102521.78;;;11.48;60.58
48848;BME280;75039;51.970;5.660;2024-01-30T06:05:46;102521.63;;;11.51;60.80
48848;BME280;75039;51.970;5.660;2024-01-30T06:08:13;102513.50;;;11.52;60.60
48848;BME280;75039;51.970;5.660;2024-01-30T06:10:40;102516.13;;;11.54;60.92
48848;BME280;75039;51.970;5.660;2024-01-30T06:13:06;102509.72;;;11.56;60.72
48848;BME280;75039;51.970;5.660;2024-01-30T06:15:33;102514.94;;;11.59;60.80
48848;BME280;75039;51.970;5.660;2024-01-30T06:18:00;102512.97;;;11.63;60.84
48848;BME280;75039;51.970;5.660;2024-01-30T06:20:29;102516.47;;;11.65;60.86
48848;BME280;75039;51.970;5.660;2024-01-30T06:22:55;102515.44;;;11.67;60.85
48848;BME280;75039;51.970;5.660;2024-01-30T06:25:22;102531.44;;;11.70;60.74
48848;BME280;75039;51.970;5.660;2024-01-30T06:27:49;102530.41;;;11.73;60.95
48848;BME280;75039;51.970;5.660;2024-01-30T06:30:15;102530.34;;;11.74;60.66
48848;BME280;75039;51.970;5.660;2024-01-30T06:32:42;102533.81;;;11.76;60.85
48848;BME280;75039;51.970;5.660;2024-01-30T06:35:09;102533.78;;;11.78;60.77
48848;BME280;75039;51.970;5.660;2024-01-30T06:37:37;102538.22;;;11.79;60.44
48848;BME280;75039;51.970;5.660;2024-01-30T06:40:04;102534.56;;;11.80;60.68
48848;BME280;75039;51.970;5.660;2024-01-30T06:42:32;102524.69;;;11.81;60.43
48848;BME280;75039;51.970;5.660;2024-01-30T06:44:58;102523.72;;;11.82;60.51
48848;BME280;75039;51.970;5.660;2024-01-30T06:47:25;102522.78;;;11.83;60.57
48848;BME280;75039;51.970;5.660;2024-01-30T06:49:52;102527.16;;;11.85;60.50
48848;BME280;75039;51.970;5.660;2024-01-30T06:52:19;102537.84;;;11.87;60.83
48848;BME280;75039;51.970;5.660;2024-01-30T06:54:46;102543.09;;;11.90;60.66
48848;BME280;75039;51.970;5.660;2024-01-30T06:57:12;102541.28;;;11.90;60.63
48848;BME280;75039;51.970;5.660;2024-01-30T06:59:41;102537.66;;;11.91;60.52
48848;BME280;75039;51.970;5.660;2024-01-30T07:02:11;102543.03;;;11.91;60.37
48848;BME280;75039;51.970;5.660;2024-01-30T07:04:38;102537.72;;;11.90;60.24
48848;BME280;75039;51.970;5.660;2024-01-30T07:07:12;102549.38;;;11.90;60.36
48848;BME280;75039;51.970;5.660;2024-01-30T07:09:40;102549.38;;;11.90;60.51
48848;BME280;75039;51.970;5.660;2024-01-30T07:12:07;102548.41;;;11.91;60.36
48848;BME280;75039;51.970;5.660;2024-01-30T07:14:34;102542.09;;;11.92;60.29
48848;BME280;75039;51.970;5.660;2024-01-30T07:17:01;102557.28;;;11.93;60.25
48848;BME280;75039;51.970;5.660;2024-01-30T07:19:28;102561.72;;;11.94;60.19
48848;BME280;75039;51.970;5.660;2024-01-30T07:21:55;102563.47;;;11.95;60.26
48848;BME280;75039;51.970;5.660;2024-01-30T07:24:21;102540.09;;;11.96;60.52
48848;BME280;75039;51.970;5.660;2024-01-30T07:26:48;102554.44;;;11.96;60.32
48848;BME280;75039;51.970;5.660;2024-01-30T07:29:15;102557.13;;;11.96;60.12
48848;BME280;75039;51.970;5.660;2024-01-30T07:31:41;102555.31;;;11.97;60.41
48848;BME280;75039;51.970;5.660;2024-01-30T07:34:09;102550.88;;;11.96;60.20
48848;BME280;75039;51.970;5.660;2024-01-30T07:36:37;102558.00;;;11.97;60.29
48848;BME280;75039;51.970;5.660;2024-01-30T07:39:05;102561.56;;;11.97;60.09
48848;BME280;75039;51.970;5.660;2024-01-30T07:41:32;102563.38;;;11.97;60.29
48848;BME280;75039;51.970;5.660;2024-01-30T07:44:00;102569.72;;;11.96;60.33
48848;BME280;75039;51.970;5.660;2024-01-30T07:46:26;102566.97;;;11.97;60.08
48848;BME280;75039;51.970;5.660;2024-01-30T07:48:53;102568.78;;;11.97;60.20
48848;BME280;75039;51.970;5.660;2024-01-30T07:51:22;102568.69;;;11.98;60.58
48848;BME280;75039;51.970;5.660;2024-01-30T07:53:55;102579.41;;;12.00;60.57
48848;BME280;75039;51.970;5.660;2024-01-30T07:56:24;102576.63;;;12.01;60.57
48848;BME280;75039;51.970;5.660;2024-01-30T07:58:51;102578.28;;;12.04;60.69
48848;BME280;75039;51.970;5.660;2024-01-30T08:01:18;102589.00;;;12.05;60.15
48848;BME280;75039;51.970;5.660;2024-01-30T08:03:45;102585.28;;;12.08;60.45
48848;BME280;75039;51.970;5.660;2024-01-30T08:06:12;102595.97;;;12.09;60.64
48848;BME280;75039;51.970;5.660;2024-01-30T08:08:39;102600.25;;;12.14;60.29
48848;BME280;75039;51.970;5.660;2024-01-30T08:11:06;102599.31;;;12.15;60.46
48848;BME280;75039;51.970;5.660;2024-01-30T08:13:34;102602.63;;;12.20;60.47
48848;BME280;75039;51.970;5.660;2024-01-30T08:16:00;102598.91;;;12.22;60.67
48848;BME280;75039;51.970;5.660;2024-01-30T08:18:27;102609.53;;;12.25;60.69
48848;BME280;75039;51.970;5.660;2024-01-30T08:20:54;102599.47;;;12.29;60.67
48848;BME280;75039;51.970;5.660;2024-01-30T08:23:20;102593.88;;;12.33;60.70
48848;BME280;75039;51.970;5.660;2024-01-30T08:25:47;102593.63;;;12.38;60.62
48848;BME280;75039;51.970;5.660;2024-01-30T08:28:13;102594.34;;;12.41;60.66
48848;BME280;75039;51.970;5.660;2024-01-30T08:30:44;102602.28;;;12.45;60.55
48848;BME280;75039;51.970;5.660;2024-01-30T08:33:11;102595.78;;;12.49;60.58
48848;BME280;75039;51.970;5.660;2024-01-30T08:35:38;102593.78;;;12.52;60.45
48848;BME280;75039;51.970;5.660;2024-01-30T08:38:05;102595.47;;;12.55;60.52
48848;BME280;75039;51.970;5.660;2024-01-30T08:40:32;102591.72;;;12.57;60.88
48848;BME280;75039;51.970;5.660;2024-01-30T08:43:00;102596.09;;;12.60;60.84
48848;BME280;75039;51.970;5.660;2024-01-30T08:45:27;102586.97;;;12.62;60.66
48848;BME280;75039;51.970;5.660;2024-01-30T08:47:53;102600.31;;;12.65;60.76
48848;BME280;75039;51.970;5.660;2024-01-30T08:50:20;102599.13;;;12.71;60.53
48848;BME280;75039;51.970;5.660;2024-01-30T08:52:47;102597.16;;;12.75;60.95
48848;BME280;75039;51.970;5.660;2024-01-30T08:55:15;102596.03;;;12.79;60.82
48848;BME280;75039;51.970;5.660;2024-01-30T08:57:42;102600.31;;;12.83;60.67
48848;BME280;75039;51.970;5.660;2024-01-30T09:00:10;102599.28;;;12.85;61.00
48848;BME280;75039;51.970;5.660;2024-01-30T09:02:37;102592.78;;;12.89;60.81
48848;BME280;75039;51.970;5.660;2024-01-30T09:05:04;102597.91;;;12.94;60.89
48848;BME280;75039;51.970;5.660;2024-01-30T09:07:31;102593.16;;;12.99;60.89
48848;BME280;75039;51.970;5.660;2024-01-30T09:09:58;102593.78;;;13.04;60.73
48848;BME280;75039;51.970;5.660;2024-01-30T09:12:25;102593.53;;;13.09;60.99
48848;BME280;75039;51.970;5.660;2024-01-30T09:14:51;102605.03;;;13.12;60.73
48848;BME280;75039;51.970;5.660;2024-01-30T09:17:18;102607.56;;;13.15;60.85
48848;BME280;75039;51.970;5.660;2024-01-30T09:19:46;102607.44;;;13.18;60.93
48848;BME280;75039;51.970;5.660;2024-01-30T09:22:12;102613.44;;;13.23;60.96
48848;BME280;75039;51.970;5.660;2024-01-30T09:24:40;102609.63;;;13.27;60.62
48848;BME280;75039;51.970;5.660;2024-01-30T09:27:07;102613.91;;;13.31;60.73
48848;BME280;75039;51.970;5.660;2024-01-30T09:29:34;102606.69;;;13.32;60.91
48848;BME280;75039;51.970;5.660;2024-01-30T09:32:03;102607.38;;;13.35;60.98
48848;BME280;75039;51.970;5.660;2024-01-30T09:34:30;102606.38;;;13.38;60.67
48848;BME280;75039;51.970;5.660;2024-01-30T09:36:59;102605.34;;;13.41;60.92
48848;BME280;75039;51.970;5.660;2024-01-30T09:39:26;102611.34;;;13.46;60.69
48848;BME280;75039;51.970;5.660;2024-01-30T09:42:05;102608.47;;;13.49;60.58
48848;BME280;75039;51.970;5.660;2024-01-30T09:44:33;102601.97;;;13.53;61.04
48848;BME280;75039;51.970;5.660;2024-01-30T09:47:01;102610.59;;;13.59;60.78
48848;BME280;75039;51.970;5.660;2024-01-30T09:49:32;102622.09;;;13.63;60.80
48848;BME280;75039;51.970;5.660;2024-01-30T09:52:00;102614.69;;;13.66;60.58
48848;BME280;75039;51.970;5.660;2024-01-30T09:54:32;102615.28;;;13.72;60.70
48848;BME280;75039;51.970;5.660;2024-01-30T09:57:02;102615.91;;;13.77;60.61
48848;BME280;75039;51.970;5.660;2024-01-30T09:59:29;102626.53;;;13.80;60.81
48848;BME280;75039;51.970;5.660;2024-01-30T10:01:57;102618.34;;;13.81;60.80
48848;BME280;75039;51.970;5.660;2024-01-30T10:04:24;102619.13;;;13.83;60.74
48848;BME280;75039;51.970;5.660;2024-01-30T10:06:51;102625.31;;;13.85;60.46
48848;BME280;75039;51.970;5.660;2024-01-30T10:09:18;102626.09;;;13.87;60.61
48848;BME280;75039;51.970;5.660;2024-01-30T10:11:45;102630.38;;;13.91;60.91
48848;BME280;75039;51.970;5.660;2024-01-30T10:14:12;102626.63;;;13.94;60.87
48848;BME280;75039;51.970;5.660;2024-01-30T10:16:39;102629.16;;;13.97;60.82
48848;BME280;75039;51.970;5.660;2024-01-30T10:19:06;102632.53;;;14.00;60.66
48848;BME280;75039;51.970;5.660;2024-01-30T10:21:32;102633.25;;;14.04;60.52
48848;BME280;75039;51.970;5.660;2024-01-30T10:23:59;102634.03;;;14.06;60.72
48848;BME280;75039;51.970;5.660;2024-01-30T10:26:26;102635.59;;;14.10;60.82
48848;BME280;75039;51.970;5.660;2024-01-30T10:28:52;102630.03;;;14.13;60.83
48848;BME280;75039;51.970;5.660;2024-01-30T10:31:19;102634.13;;;14.20;60.50
48848;BME280;75039;51.970;5.660;2024-01-30T10:33:46;102633.09;;;14.23;60.72
48848;BME280;75039;51.970;5.660;2024-01-30T10:36:14;102628.38;;;14.26;60.72
48848;BME280;75039;51.970;5.660;2024-01-30T10:38:49;102641.63;;;14.31;60.66
48848;BME280;75039;51.970;5.660;2024-01-30T10:41:19;102625.22;;;14.34;60.45
48848;BME280;75039;51.970;5.660;2024-01-30T10:43:58;102629.47;;;14.38;60.55
48848;BME280;75039;51.970;5.660;2024-01-30T10:46:31;102631.94;;;14.43;60.65
48848;BME280;75039;51.970;5.660;2024-01-30T10:48:58;102631.69;;;14.47;60.07
48848;BME280;75039;51.970;5.660;2024-01-30T10:51:29;102626.00;;;14.52;60.22
48848;BME280;75039;51.970;5.660;2024-01-30T10:53:56;102633.75;;;14.58;60.33
48848;BME280;75039;51.970;5.660;2024-01-30T10:56:25;102632.41;;;14.65;60.20
48848;BME280;75039;51.970;5.660;2024-01-30T10:58:53;102642.88;;;14.71;60.07
48848;BME280;75039;51.970;5.660;2024-01-30T11:01:21;102649.75;;;14.77;60.10
48848;BME280;75039;51.970;5.660;2024-01-30T11:03:53;102648.59;;;14.81;59.82
48848;BME280;75039;51.970;5.660;2024-01-30T11:06:25;102638.38;;;14.86;59.94
48848;BME280;75039;51.970;5.660;2024-01-30T11:09:02;102644.50;;;14.89;59.63
48848;BME280;75039;51.970;5.660;2024-01-30T11:11:31;102637.84;;;14.95;59.99
48848;BME280;75039;51.970;5.660;2024-01-30T11:14:00;102632.34;;;14.97;59.65
48848;BME280;75039;51.970;5.660;2024-01-30T11:16:31;102637.56;;;15.00;59.53
48848;BME280;75039;51.970;5.660;2024-01-30T11:19:00;102642.00;;;15.01;59.33
48848;BME280;75039;51.970;5.660;2024-01-30T11:21:27;102646.34;;;15.03;59.30
48848;BME280;75039;51.970;5.660;2024-01-30T11:23:54;102634.66;;;15.03;59.65
48848;BME280;75039;51.970;5.660;2024-01-30T11:26:27;102641.81;;;15.04;59.37
48848;BME280;75039;51.970;5.660;2024-01-30T11:28:55;102643.56;;;15.05;59.27
48848;BME280;75039;51.970;5.660;2024-01-30T11:31:22;102639.00;;;15.05;59.23
48848;BME280;75039;51.970;5.660;2024-01-30T11:33:52;102630.81;;;15.07;59.29
48848;BME280;75039;51.970;5.660;2024-01-30T11:36:25;102635.16;;;15.09;59.11
48848;BME280;75039;51.970;5.660;2024-01-30T11:38:52;102632.34;;;15.11;59.34
48848;BME280;75039;51.970;5.660;2024-01-30T11:41:18;102630.41;;;15.13;59.09
48848;BME280;75039;51.970;5.660;2024-01-30T11:43:52;102631.28;;;15.13;59.39
48848;BME280;75039;51.970;5.660;2024-01-30T11:46:19;102626.66;;;15.15;58.93
48848;BME280;75039;51.970;5.660;2024-01-30T11:48:46;102638.25;;;15.17;58.76
48848;BME280;75039;51.970;5.660;2024-01-30T11:51:13;102634.59;;;15.18;58.81
48848;BME280;75039;51.970;5.660;2024-01-30T11:53:41;102645.22;;;15.21;58.90
48848;BME280;75039;51.970;5.660;2024-01-30T11:56:09;102637.78;;;15.25;58.88
48848;BME280;75039;51.970;5.660;2024-01-30T11:58:42;102640.38;;;15.26;58.68
48848;BME280;75039;51.970;5.660;2024-01-30T12:01:11;102640.28;;;15.28;58.36
48848;BME280;75039;51.970;5.660;2024-01-30T12:03:38;102655.66;;;15.27;58.45
48848;BME280;75039;51.970;5.660;2024-01-30T12:06:05;102656.72;;;15.25;58.30
48848;BME280;75039;51.970;5.660;2024-01-30T12:08:32;102661.38;;;15.23;58.04
48848;BME280;75039;51.970;5.660;2024-01-30T12:10:58;102675.19;;;15.18;58.07
48848;BME280;75039;51.970;5.660;2024-01-30T12:13:26;102654.88;;;15.11;57.91
48848;BME280;75039;51.970;5.660;2024-01-30T12:15:58;102660.66;;;15.05;57.67
48848;BME280;75039;51.970;5.660;2024-01-30T12:18:25;102658.25;;;15.01;57.46
48848;BME280;75039;51.970;5.660;2024-01-30T12:20:59;102651.28;;;14.97;57.47
48848;BME280;75039;51.970;5.660;2024-01-30T12:23:27;102672.13;;;14.94;57.65
48848;BME280;75039;51.970;5.660;2024-01-30T12:25:54;102685.94;;;14.90;57.59
48848;BME280;75039;51.970;5.660;2024-01-30T12:28:21;102705.22;;;14.84;57.37
48848;BME280;75039;51.970;5.660;2024-01-30T12:30:47;102710.28;;;14.74;57.22
48848;BME280;75039;51.970;5.660;2024-01-30T12:33:17;102700.13;;;14.63;56.53
48848;BME280;75039;51.970;5.660;2024-01-30T12:35:48;102708.75;;;14.54;56.55
48848;BME280;75039;51.970;5.660;2024-01-30T12:38:28;102701.97;;;14.47;56.87
48848;BME280;75039;51.970;5.660;2024-01-30T12:40:54;102712.19;;;14.42;56.61
48848;BME280;75039;51.970;5.660;2024-01-30T12:43:23;102711.44;;;14.39;56.76
48848;BME280;75039;51.970;5.660;2024-01-30T12:46:03;102720.53;;;14.38;56.88
48848;BME280;75039;51.970;5.660;2024-01-30T12:48:30;102701.59;;;14.38;56.97
48848;BME280;75039;51.970;5.660;2024-01-30T12:50:57;102717.72;;;14.39;56.78